Terminal Aerodrome Forecast
Issued by NWS Sterling, VA

Current Version | Previous Version | Graphics & Text | Print | Product List | Glossary On
Versions: 1 2 3 4 5 6 7 8 9 10 11 12 13
000
FTUS41 KLWX 211700
TAFMRB
TAF
KMRB 211739Z 2118/2218 VRB03KT P6SM BKN050
     FM211900 VRB03KT P6SM SCT200
     FM220900 VRB03KT P6SM BKN050
     FM221400 VRB03KT P6SM BKN025 OVC050=

USA.gov is the U.S. government's official web portal to all federal, state and local government web resources and services.